Terminal Aerodrome Forecast
Issued by NWS

Home | Current Version | Previous Version | Text Only | Print | Product List | Glossary On
Versions: 1 2 3 4 5 6 7 8 9 10 11
377
FTUS44 KLIX 081134
TAFMCB
TAF
KMCB 081134Z 0812/0912 27004KT P6SM SKC
     FM081500 30012KT P6SM FEW250
     FM082000 31019G27KT P6SM FEW130
     FM082300 30013KT P6SM FEW060
     FM090100 30008KT P6SM FEW120=

USA.gov is the U.S. government's official web portal to all federal, state and local government web resources and services.